createdAt,value
2016-06-21T00:02:08.608Z,1010.39
2016-06-21T00:05:25.077Z,1010.39
2016-06-21T00:08:30.107Z,1010.45
2016-06-21T00:11:42.140Z,1010.51
2016-06-21T00:14:55.919Z,1010.43
2016-06-21T00:18:09.829Z,1010.51
2016-06-21T00:21:27.707Z,1010.57
2016-06-21T00:24:32.713Z,1010.45
2016-06-21T00:27:46.665Z,1010.51
2016-06-21T00:31:00.075Z,1010.43
2016-06-21T00:34:13.098Z,1010.55
2016-06-21T00:37:30.609Z,1010.55
2016-06-21T00:40:35.556Z,1010.69
2016-06-21T00:43:49.063Z,1010.49
2016-06-21T00:47:00.414Z,1010.53
2016-06-21T00:50:14.251Z,1010.55
2016-06-21T00:53:26.524Z,1010.49
2016-06-21T00:56:41.306Z,1010.53
2016-06-21T00:59:52.646Z,1010.49
2016-06-21T01:03:07.386Z,1010.47
2016-06-21T01:06:24.941Z,1010.43
2016-06-21T01:09:29.982Z,1010.35
2016-06-21T01:12:43.795Z,1010.33
2016-06-21T01:15:57.258Z,1010.33
2016-06-21T01:19:11.036Z,1010.31
2016-06-21T01:22:28.498Z,1010.29
2016-06-21T01:25:33.434Z,1010.31
2016-06-21T01:28:47.197Z,1010.29
2016-06-21T01:32:00.734Z,1010.23
2016-06-21T01:35:14.484Z,1010.17
2016-06-21T01:38:28.346Z,1010.23
2016-06-21T01:41:39.794Z,1010.19
2016-06-21T01:44:53.391Z,1010.23
2016-06-21T01:48:07.026Z,1010.23
2016-06-21T01:51:24.452Z,1010.25
2016-06-21T01:54:29.306Z,1010.17
2016-06-21T01:57:42.898Z,1010.21
2016-06-21T02:00:56.706Z,1010.25
2016-06-21T02:04:10.058Z,1010.23
2016-06-21T02:07:27.741Z,1010.13
2016-06-21T02:10:32.715Z,1010.17
2016-06-21T02:13:46.423Z,1010.11
2016-06-21T02:16:59.999Z,1010.11
2016-06-21T02:20:13.599Z,1010.13
2016-06-21T02:23:28.811Z,1009.97
2016-06-21T02:26:33.698Z,1010.07
2016-06-21T02:29:47.417Z,1010.07
2016-06-21T02:33:01.051Z,1010.03
2016-06-21T02:36:14.149Z,1010.05
2016-06-21T02:39:27.045Z,1009.97
2016-06-21T02:42:40.433Z,1010.07
2016-06-21T02:45:54.027Z,1010.01
2016-06-21T02:49:07.778Z,1009.95
2016-06-21T02:52:25.486Z,1010.07
2016-06-21T02:55:30.412Z,1010.05
2016-06-21T02:58:43.059Z,1010.05
2016-06-21T03:01:57.918Z,1010.05
2016-06-21T03:05:11.756Z,1009.95
2016-06-21T03:08:29.426Z,1009.95
2016-06-21T03:11:34.473Z,1010.01
2016-06-21T03:14:48.167Z,1009.97
2016-06-21T03:18:01.175Z,1010.05
2016-06-21T03:21:15.681Z,1010.05
2016-06-21T03:24:29.384Z,1010.07
2016-06-21T03:27:43.052Z,1010.15
2016-06-21T03:30:56.485Z,1010.13
2016-06-21T03:34:09.943Z,1010.15
2016-06-21T03:37:27.683Z,1010.15
2016-06-21T03:40:32.792Z,1010.09
2016-06-21T03:43:46.506Z,1010.01
2016-06-21T03:47:00.069Z,1010.13
2016-06-21T03:50:13.424Z,1010.07
2016-06-21T03:53:27.416Z,1010.07
2016-06-21T03:56:39.663Z,1010.05
2016-06-21T03:59:53.371Z,1010.13
2016-06-21T04:03:05.224Z,1010.07
2016-06-21T04:06:22.974Z,1010.11
2016-06-21T04:09:27.838Z,1010.17
2016-06-21T04:12:41.418Z,1010.21
2016-06-21T04:15:55.239Z,1010.23
2016-06-21T04:19:08.754Z,1010.23
2016-06-21T04:22:23.295Z,1010.23
2016-06-21T04:25:28.245Z,1010.27
2016-06-21T04:28:42.015Z,1010.17
2016-06-21T04:31:55.406Z,1010.21
2016-06-21T04:35:09.109Z,1010.29
2016-06-21T04:38:26.174Z,1010.37
2016-06-21T04:41:31.147Z,1010.25
2016-06-21T04:44:44.967Z,1010.31
2016-06-21T04:47:58.473Z,1010.31
2016-06-21T04:51:09.063Z,1010.31
2016-06-21T04:54:26.629Z,1010.41
2016-06-21T04:57:31.683Z,1010.33
2016-06-21T05:00:45.270Z,1010.45
2016-06-21T05:03:58.911Z,1010.53
2016-06-21T05:07:12.602Z,1010.47
2016-06-21T05:10:26.962Z,1010.51
2016-06-21T05:13:31.850Z,1010.51
2016-06-21T05:16:45.592Z,1010.53
2016-06-21T05:19:59.150Z,1010.55
2016-06-21T05:23:12.880Z,1010.45
2016-06-21T05:26:30.225Z,1010.49
2016-06-21T05:29:35.453Z,1010.45
2016-06-21T05:32:49.073Z,1010.55
2016-06-21T05:36:02.414Z,1010.55
2016-06-21T05:39:16.062Z,1010.55
2016-06-21T05:42:29.876Z,1010.59
2016-06-21T05:45:41.410Z,1010.61
2016-06-21T05:48:55.213Z,1010.71
2016-06-21T05:52:08.889Z,1010.67
2016-06-21T05:55:26.383Z,1010.63
2016-06-21T05:58:31.270Z,1010.67
2016-06-21T06:01:45.009Z,1010.67
2016-06-21T06:04:58.552Z,1010.73
2016-06-21T06:08:12.018Z,1010.59
2016-06-21T06:11:29.578Z,1010.75
2016-06-21T06:14:34.558Z,1010.59
2016-06-21T06:17:47.676Z,1010.65
2016-06-21T06:21:01.404Z,1010.65
2016-06-21T06:24:15.207Z,1010.65
2016-06-21T06:27:28.863Z,1010.61
2016-06-21T06:30:42.320Z,1010.63
2016-06-21T06:33:56.126Z,1010.73
2016-06-21T06:37:10.084Z,1010.65
2016-06-21T06:40:27.991Z,1010.55
2016-06-21T06:43:33.010Z,1010.71
2016-06-21T06:46:46.802Z,1010.65
2016-06-21T06:50:00.401Z,1010.69
2016-06-21T06:53:14.167Z,1010.79
2016-06-21T06:56:27.821Z,1010.71
2016-06-21T06:59:41.439Z,1010.87
2016-06-21T07:02:55.294Z,1010.95
2016-06-21T07:06:08.631Z,1011.01
2016-06-21T07:09:26.373Z,1010.95
2016-06-21T07:12:31.578Z,1011.01
2016-06-21T07:15:43.237Z,1011.03
2016-06-21T07:18:53.740Z,1011.19
2016-06-21T07:22:07.107Z,1011.21
2016-06-21T07:25:24.855Z,1011.19
2016-06-21T07:28:29.965Z,1011.23
2016-06-21T07:31:43.838Z,1011.27
2016-06-21T07:34:56.635Z,1011.29
2016-06-21T07:38:11.125Z,1011.31
2016-06-21T07:41:28.839Z,1011.39
2016-06-21T07:44:32.783Z,1011.49
2016-06-21T07:47:47.169Z,1011.49
2016-06-21T07:51:00.312Z,1011.47
2016-06-21T07:54:14.189Z,1011.51
2016-06-21T07:57:28.123Z,1011.49
2016-06-21T08:00:42.197Z,1011.57
2016-06-21T08:03:56.034Z,1011.53
2016-06-21T08:07:09.731Z,1011.53
2016-06-21T08:10:27.876Z,1011.68
2016-06-21T08:13:33.122Z,1011.66
2016-06-21T08:16:43.247Z,1011.64
2016-06-21T08:19:57.023Z,1011.74
2016-06-21T08:23:09.284Z,1011.8
2016-06-21T08:26:27.009Z,1011.84
2016-06-21T08:29:32.105Z,1011.94
2016-06-21T08:32:45.967Z,1011.84
2016-06-21T08:36:00.030Z,1011.84
2016-06-21T08:39:13.950Z,1011.76
2016-06-21T08:42:28.194Z,1011.94
2016-06-21T08:45:42.346Z,1012.08
2016-06-21T08:48:52.562Z,1012.06
2016-06-21T08:52:05.854Z,1012.14
2016-06-21T08:55:23.762Z,1012.22
2016-06-21T08:58:29.002Z,1012.24
2016-06-21T09:01:43.223Z,1012.24
2016-06-21T09:04:56.311Z,1012.18
2016-06-21T09:08:09.825Z,1012.2
2016-06-21T09:11:27.643Z,1012.26
2016-06-21T09:14:33.185Z,1012.16
2016-06-21T09:17:46.713Z,1012.28
2016-06-21T09:21:00.334Z,1011.96
2016-06-21T09:24:14.550Z,1012.26
2016-06-21T09:27:28.079Z,1012.5
2016-06-21T09:30:41.857Z,1012.74
2016-06-21T09:33:55.201Z,1012.84
2016-06-21T09:37:08.499Z,1013
2016-06-21T09:40:25.589Z,1013.09
2016-06-21T09:43:30.685Z,1013.04
2016-06-21T09:46:44.291Z,1013.06
2016-06-21T09:49:58.180Z,1013.06
2016-06-21T09:53:11.759Z,1013.11
2016-06-21T09:56:29.381Z,1013.25
2016-06-21T09:59:34.663Z,1013.31
2016-06-21T10:02:47.992Z,1013.27
2016-06-21T10:06:01.323Z,1013.37
2016-06-21T10:09:15.135Z,1013.37
2016-06-21T10:12:29.311Z,1013.31
2016-06-21T10:15:41.235Z,1013.37
2016-06-21T10:18:55.182Z,1013.39
2016-06-21T10:22:09.319Z,1013.35
2016-06-21T10:25:27.566Z,1013.45
2016-06-21T10:28:33.014Z,1013.45
2016-06-21T10:31:47.134Z,1013.37
2016-06-21T10:35:01.276Z,1013.43
2016-06-21T10:38:15.499Z,1013.37
2016-06-21T10:41:29.690Z,1013.43
2016-06-21T10:44:43.873Z,1013.45
2016-06-21T10:47:57.731Z,1013.57
2016-06-21T10:51:11.498Z,1013.55
2016-06-21T10:54:28.462Z,1013.49
2016-06-21T10:57:34.335Z,1013.51
2016-06-21T11:00:48.152Z,1013.63
2016-06-21T11:04:02.368Z,1013.61
2016-06-21T11:07:16.557Z,1013.55
2016-06-21T11:10:28.552Z,1013.55
2016-06-21T11:13:42.555Z,1013.63
2016-06-21T11:16:54.767Z,1013.61
2016-06-21T11:20:08.995Z,1013.63
2016-06-21T11:23:27.274Z,1013.47
2016-06-21T11:26:32.843Z,1013.55
2016-06-21T11:29:47.186Z,1013.59
2016-06-21T11:33:01.481Z,1013.59
2016-06-21T11:36:15.702Z,1013.55
2016-06-21T11:39:29.730Z,1013.55
2016-06-21T11:42:43.743Z,1013.57
2016-06-21T11:45:58.025Z,1013.63
2016-06-21T11:49:12.428Z,1013.65
2016-06-21T11:52:30.615Z,1013.75
2016-06-21T11:55:36.218Z,1013.75
2016-06-21T11:58:48.344Z,1013.79
2016-06-21T12:02:02.682Z,1013.83
2016-06-21T12:05:16.870Z,1013.69
2016-06-21T12:08:30.880Z,1013.81
2016-06-21T12:11:43.100Z,1013.81
2016-06-21T12:14:57.142Z,1013.93
2016-06-21T12:18:11.488Z,1013.91
2016-06-21T12:21:29.279Z,1013.91
2016-06-21T12:24:34.777Z,1013.89
2016-06-21T12:27:48.802Z,1013.95
2016-06-21T12:31:02.902Z,1014.05
2016-06-21T12:34:17.015Z,1014.11
2016-06-21T12:37:31.118Z,1014.17
2016-06-21T12:40:45.220Z,1014.17
2016-06-21T12:43:59.550Z,1014.19
2016-06-21T12:47:11.459Z,1014.13
2016-06-21T12:50:29.683Z,1014.11
2016-06-21T12:53:35.325Z,1014.15
2016-06-21T12:56:46.818Z,1014.11
2016-06-21T13:00:01.135Z,1014.13
2016-06-21T13:03:15.251Z,1014.15
2016-06-21T13:06:29.543Z,1014.19
2016-06-21T13:09:43.769Z,1014.15
2016-06-21T13:12:57.930Z,1014.09
2016-06-21T13:16:12.064Z,1014.19
2016-06-21T13:19:30.255Z,1014.23
2016-06-21T13:22:35.670Z,1014.21
2016-06-21T13:25:49.829Z,1014.27
2016-06-21T13:29:04.059Z,1014.23
2016-06-21T13:32:22.112Z,1014.33
2016-06-21T13:35:27.583Z,1014.27
2016-06-21T13:38:41.801Z,1014.23
2016-06-21T13:41:54.584Z,1014.35
2016-06-21T13:45:06.982Z,1014.29
2016-06-21T13:48:25.196Z,1014.25
2016-06-21T13:51:30.761Z,1014.35
2016-06-21T13:54:44.959Z,1014.33
2016-06-21T13:57:57.827Z,1014.37
2016-06-21T14:01:11.973Z,1014.37
2016-06-21T14:04:30.051Z,1014.29
2016-06-21T14:07:35.447Z,1014.33
2016-06-21T14:10:49.664Z,1014.29
2016-06-21T14:14:00.293Z,1014.35
2016-06-21T14:17:14.387Z,1014.39
2016-06-21T14:20:29.301Z,1014.47
2016-06-21T14:23:34.803Z,1014.49
2016-06-21T14:26:47.961Z,1014.43
2016-06-21T14:30:02.208Z,1014.39
2016-06-21T14:33:16.526Z,1014.39
2016-06-21T14:36:29.720Z,1014.41
2016-06-21T14:39:44.117Z,1014.43
2016-06-21T14:42:58.267Z,1014.45
2016-06-21T14:46:12.614Z,1014.41
2016-06-21T14:49:30.948Z,1014.51
2016-06-21T14:52:36.629Z,1014.51
2016-06-21T14:55:50.941Z,1014.51
2016-06-21T14:59:05.090Z,1014.59
2016-06-21T15:02:23.223Z,1014.55
2016-06-21T15:05:28.770Z,1014.57
2016-06-21T15:08:39.673Z,1014.51
2016-06-21T15:11:53.895Z,1014.57
2016-06-21T15:15:08.329Z,1014.43
2016-06-21T15:18:26.694Z,1014.47
2016-06-21T15:21:32.370Z,1014.41
2016-06-21T15:24:46.471Z,1014.51
2016-06-21T15:28:00.813Z,1014.49
2016-06-21T15:31:14.922Z,1014.63
2016-06-21T15:34:29.183Z,1014.49
2016-06-21T15:37:43.574Z,1014.51
2016-06-21T15:40:57.917Z,1014.53
2016-06-21T15:44:12.257Z,1014.49
2016-06-21T15:47:30.483Z,1014.59
2016-06-21T15:50:36.129Z,1014.51
2016-06-21T15:53:47.617Z,1014.55
2016-06-21T15:57:01.754Z,1014.57
2016-06-21T16:00:15.568Z,1014.55
2016-06-21T16:03:31.311Z,1014.57
2016-06-21T16:06:36.938Z,1014.61
2016-06-21T16:09:50.235Z,1014.59
2016-06-21T16:13:05.702Z,1014.61
2016-06-21T16:16:23.712Z,1014.47
2016-06-21T16:19:29.269Z,1014.59
2016-06-21T16:22:43.596Z,1014.59
2016-06-21T16:25:57.763Z,1014.51
2016-06-21T16:29:12.177Z,1014.59
2016-06-21T16:32:30.304Z,1014.61
2016-06-21T16:35:36.018Z,1014.63
2016-06-21T16:38:50.085Z,1014.67
2016-06-21T16:42:04.237Z,1014.65
2016-06-21T16:45:22.351Z,1014.77
2016-06-21T16:48:28.006Z,1014.69
2016-06-21T16:51:40.964Z,1014.71
2016-06-21T16:54:55.101Z,1014.71
2016-06-21T16:58:09.502Z,1014.71
2016-06-21T17:01:27.962Z,1014.73
2016-06-21T17:04:33.499Z,1014.71
2016-06-21T17:07:47.446Z,1014.75
2016-06-21T17:11:01.875Z,1014.83
2016-06-21T17:14:15.879Z,1014.79
2016-06-21T17:17:27.783Z,1014.83
2016-06-21T17:20:38.765Z,1014.91
2016-06-21T17:23:53.095Z,1014.91
2016-06-21T17:27:06.379Z,1014.87
2016-06-21T17:30:24.292Z,1014.85
2016-06-21T17:33:29.933Z,1014.91
2016-06-21T17:36:43.895Z,1014.93
2016-06-21T17:39:58.266Z,1014.93
2016-06-21T17:43:12.611Z,1015.02
2016-06-21T17:46:30.740Z,1014.98
2016-06-21T17:49:36.399Z,1015.02
2016-06-21T17:52:50.751Z,1015.06
2016-06-21T17:56:02.553Z,1015.04
2016-06-21T17:59:16.771Z,1015.12
2016-06-21T18:02:30.844Z,1014.96
2016-06-21T18:05:45.208Z,1015.02
2016-06-21T18:08:59.358Z,1015.02
2016-06-21T18:12:13.583Z,1015.12
2016-06-21T18:15:31.697Z,1015.08
2016-06-21T18:18:37.304Z,1015.08
2016-06-21T18:21:48.138Z,1015.1
2016-06-21T18:25:02.192Z,1015.14
2016-06-21T18:28:16.317Z,1015.18
2016-06-21T18:31:30.331Z,1015.12
2016-06-21T18:34:44.740Z,1015.22
2016-06-21T18:37:56.754Z,1015.16
2016-06-21T18:41:10.871Z,1015.18
2016-06-21T18:44:29.134Z,1015.22
2016-06-21T18:47:34.658Z,1015.28
2016-06-21T18:50:48.891Z,1015.24
2016-06-21T18:54:00.776Z,1015.26
2016-06-21T18:57:14.012Z,1015.38
2016-06-21T19:00:29.339Z,1015.3
2016-06-21T19:03:43.286Z,1015.32
2016-06-21T19:06:57.224Z,1015.42
2016-06-21T19:10:11.031Z,1015.44
2016-06-21T19:13:28.345Z,1015.44
2016-06-21T19:16:33.702Z,1015.42
2016-06-21T19:19:44.597Z,1015.52
2016-06-21T19:22:58.396Z,1015.5
2016-06-21T19:26:12.424Z,1015.52
2016-06-21T19:29:27.155Z,1015.54
2016-06-21T19:32:32.392Z,1015.6
2016-06-21T19:35:45.428Z,1015.64
2016-06-21T19:39:00.776Z,1015.7
2016-06-21T19:42:15.363Z,1015.7
2016-06-21T19:45:28.528Z,1015.74
2016-06-21T19:48:40.900Z,1015.82
2016-06-21T19:51:54.923Z,1015.78
2016-06-21T19:55:08.895Z,1015.8
2016-06-21T19:58:26.573Z,1015.82
2016-06-21T20:01:31.851Z,1015.84
2016-06-21T20:04:45.634Z,1015.86
2016-06-21T20:07:59.287Z,1015.82
2016-06-21T20:11:13.222Z,1015.9
2016-06-21T20:14:31.115Z,1015.86
2016-06-21T20:17:36.361Z,1015.94
2016-06-21T20:20:48.902Z,1015.98
2016-06-21T20:24:02.729Z,1016.04
2016-06-21T20:27:16.502Z,1016.04
2016-06-21T20:30:30.179Z,1016.02
2016-06-21T20:33:44.229Z,1016
2016-06-21T20:36:58.193Z,1016.06
2016-06-21T20:40:12.087Z,1016.04
2016-06-21T20:43:29.810Z,1016.12
2016-06-21T20:46:35.000Z,1016.26
2016-06-21T20:49:45.574Z,1016.2
2016-06-21T20:52:59.634Z,1016.28
2016-06-21T20:56:13.052Z,1016.36
2016-06-21T20:59:30.159Z,1016.3
2016-06-21T21:02:35.321Z,1016.3
2016-06-21T21:05:47.870Z,1016.34
2016-06-21T21:08:57.998Z,1016.3
2016-06-21T21:12:11.982Z,1016.3
2016-06-21T21:15:30.204Z,1016.32
2016-06-21T21:18:35.575Z,1016.38
2016-06-21T21:21:47.206Z,1016.42
2016-06-21T21:25:01.161Z,1016.52
2016-06-21T21:28:14.931Z,1016.48
2016-06-21T21:31:28.763Z,1016.48
2016-06-21T21:34:41.626Z,1016.48
2016-06-21T21:37:56.814Z,1016.52
2016-06-21T21:41:10.185Z,1016.44
2016-06-21T21:44:28.014Z,1016.48
2016-06-21T21:47:33.155Z,1016.46
2016-06-21T21:50:47.138Z,1016.44
2016-06-21T21:54:01.006Z,1016.5
2016-06-21T21:57:13.117Z,1016.58
2016-06-21T22:00:28.786Z,1016.62
2016-06-21T22:03:34.032Z,1016.6
2016-06-21T22:06:46.544Z,1016.58
2016-06-21T22:09:59.718Z,1016.56
2016-06-21T22:13:11.066Z,1016.58
2016-06-21T22:16:28.739Z,1016.58
2016-06-21T22:19:33.807Z,1016.66
2016-06-21T22:22:47.618Z,1016.74
2016-06-21T22:26:01.354Z,1016.8
2016-06-21T22:29:15.066Z,1016.68
2016-06-21T22:32:31.581Z,1016.74
2016-06-21T22:35:36.707Z,1016.68
2016-06-21T22:38:50.438Z,1016.72
2016-06-21T22:42:04.341Z,1016.7
2016-06-21T22:45:18.114Z,1016.66
2016-06-21T22:48:31.576Z,1016.82
2016-06-21T22:51:43.564Z,1016.7
2016-06-21T22:54:53.585Z,1016.85
2016-06-21T22:58:07.324Z,1016.76
2016-06-21T23:01:24.659Z,1016.78
2016-06-21T23:04:29.588Z,1016.82
2016-06-21T23:07:43.203Z,1016.89
2016-06-21T23:10:56.690Z,1016.91
2016-06-21T23:14:10.278Z,1016.89
2016-06-21T23:17:27.201Z,1016.87
2016-06-21T23:20:32.162Z,1016.89
2016-06-21T23:23:46.027Z,1016.87
2016-06-21T23:26:59.909Z,1016.91
2016-06-21T23:30:13.205Z,1017.03
2016-06-21T23:33:28.683Z,1017.07
2016-06-21T23:36:33.783Z,1016.99
2016-06-21T23:39:47.565Z,1016.91
2016-06-21T23:43:01.419Z,1017.01
2016-06-21T23:46:15.119Z,1016.99
2016-06-21T23:49:32.753Z,1017.07
2016-06-21T23:52:37.700Z,1017.01
2016-06-21T23:55:51.207Z,1017.07
2016-06-21T23:59:04.975Z,1017.07
